sensor_id;sensor_type;location;lat;lon;timestamp;P1;durP1;ratioP1;P2;durP2;ratioP2
73593;SDS011;64760;53.404;23.498;2023-12-22T00:00:56;3.58;;;1.77;;
73593;SDS011;64760;53.404;23.498;2023-12-22T00:03:37;3.80;;;2.47;;
73593;SDS011;64760;53.404;23.498;2023-12-22T00:06:04;3.22;;;1.65;;
73593;SDS011;64760;53.404;23.498;2023-12-22T00:08:30;3.67;;;1.40;;
73593;SDS011;64760;53.404;23.498;2023-12-22T00:10:56;3.85;;;2.13;;
73593;SDS011;64760;53.404;23.498;2023-12-22T00:13:23;5.15;;;2.53;;
73593;SDS011;64760;53.404;23.498;2023-12-22T00:15:49;4.70;;;2.70;;
73593;SDS011;64760;53.404;23.498;2023-12-22T00:18:15;4.50;;;2.28;;
73593;SDS011;64760;53.404;23.498;2023-12-22T00:20:41;5.30;;;3.50;;
73593;SDS011;64760;53.404;23.498;2023-12-22T00:23:07;5.43;;;2.65;;
73593;SDS011;64760;53.404;23.498;2023-12-22T00:25:34;7.85;;;4.43;;
73593;SDS011;64760;53.404;23.498;2023-12-22T00:28:00;4.57;;;2.50;;
73593;SDS011;64760;53.404;23.498;2023-12-22T00:30:26;5.25;;;2.95;;
73593;SDS011;64760;53.404;23.498;2023-12-22T00:32:52;3.80;;;2.47;;
73593;SDS011;64760;53.404;23.498;2023-12-22T00:35:18;3.67;;;2.17;;
73593;SDS011;64760;53.404;23.498;2023-12-22T00:37:44;8.25;;;2.83;;
73593;SDS011;64760;53.404;23.498;2023-12-22T00:40:11;5.60;;;2.42;;
73593;SDS011;64760;53.404;23.498;2023-12-22T00:42:37;3.53;;;1.83;;
73593;SDS011;64760;53.404;23.498;2023-12-22T00:45:04;4.50;;;2.20;;
73593;SDS011;64760;53.404;23.498;2023-12-22T00:47:30;4.45;;;2.13;;
73593;SDS011;64760;53.404;23.498;2023-12-22T00:49:56;4.15;;;1.83;;
73593;SDS011;64760;53.404;23.498;2023-12-22T00:52:22;3.67;;;1.17;;
73593;SDS011;64760;53.404;23.498;2023-12-22T00:54:49;2.80;;;1.52;;
73593;SDS011;64760;53.404;23.498;2023-12-22T00:57:15;7.30;;;2.30;;
73593;SDS011;64760;53.404;23.498;2023-12-22T00:59:42;8.02;;;2.08;;
73593;SDS011;64760;53.404;23.498;2023-12-22T01:02:13;4.57;;;2.42;;
73593;SDS011;64760;53.404;23.498;2023-12-22T01:04:41;3.33;;;1.15;;
73593;SDS011;64760;53.404;23.498;2023-12-22T01:07:07;1.45;;;1.00;;
73593;SDS011;64760;53.404;23.498;2023-12-22T01:09:35;3.97;;;1.92;;
73593;SDS011;64760;53.404;23.498;2023-12-22T01:12:03;6.20;;;2.45;;
73593;SDS011;64760;53.404;23.498;2023-12-22T01:14:31;3.45;;;1.27;;
73593;SDS011;64760;53.404;23.498;2023-12-22T01:16:57;3.95;;;1.58;;
73593;SDS011;64760;53.404;23.498;2023-12-22T01:19:25;2.17;;;1.05;;
73593;SDS011;64760;53.404;23.498;2023-12-22T01:21:51;4.15;;;1.60;;
73593;SDS011;64760;53.404;23.498;2023-12-22T01:24:17;5.38;;;1.73;;
73593;SDS011;64760;53.404;23.498;2023-12-22T01:26:43;2.65;;;1.27;;
73593;SDS011;64760;53.404;23.498;2023-12-22T01:29:10;6.15;;;1.98;;
73593;SDS011;64760;53.404;23.498;2023-12-22T01:31:36;5.97;;;1.67;;
73593;SDS011;64760;53.404;23.498;2023-12-22T01:34:02;4.97;;;1.42;;
73593;SDS011;64760;53.404;23.498;2023-12-22T01:36:29;2.28;;;1.17;;
73593;SDS011;64760;53.404;23.498;2023-12-22T01:38:55;2.15;;;1.20;;
73593;SDS011;64760;53.404;23.498;2023-12-22T01:41:21;1.48;;;0.80;;
73593;SDS011;64760;53.404;23.498;2023-12-22T01:43:47;7.10;;;1.35;;
73593;SDS011;64760;53.404;23.498;2023-12-22T01:46:13;5.38;;;1.88;;
73593;SDS011;64760;53.404;23.498;2023-12-22T01:48:40;4.07;;;1.65;;
73593;SDS011;64760;53.404;23.498;2023-12-22T01:51:06;5.47;;;1.85;;
73593;SDS011;64760;53.404;23.498;2023-12-22T01:53:33;4.30;;;1.38;;
73593;SDS011;64760;53.404;23.498;2023-12-22T01:56:00;6.68;;;2.40;;
73593;SDS011;64760;53.404;23.498;2023-12-22T01:58:28;4.45;;;1.38;;
73593;SDS011;64760;53.404;23.498;2023-12-22T02:01:04;3.20;;;1.52;;
73593;SDS011;64760;53.404;23.498;2023-12-22T02:03:30;2.08;;;1.17;;
73593;SDS011;64760;53.404;23.498;2023-12-22T02:05:57;1.95;;;0.65;;
73593;SDS011;64760;53.404;23.498;2023-12-22T02:08:23;1.55;;;0.85;;
73593;SDS011;64760;53.404;23.498;2023-12-22T02:10:52;4.25;;;1.85;;
73593;SDS011;64760;53.404;23.498;2023-12-22T02:13:18;1.63;;;0.68;;
73593;SDS011;64760;53.404;23.498;2023-12-22T02:15:44;10.70;;;2.83;;
73593;SDS011;64760;53.404;23.498;2023-12-22T02:18:16;11.35;;;2.30;;
73593;SDS011;64760;53.404;23.498;2023-12-22T02:20:47;6.05;;;2.15;;
73593;SDS011;64760;53.404;23.498;2023-12-22T02:23:15;7.68;;;1.42;;
73593;SDS011;64760;53.404;23.498;2023-12-22T02:25:41;2.53;;;1.58;;
73593;SDS011;64760;53.404;23.498;2023-12-22T02:28:09;9.27;;;2.20;;
73593;SDS011;64760;53.404;23.498;2023-12-22T02:33:23;3.97;;;2.20;;
73593;SDS011;64760;53.404;23.498;2023-12-22T02:35:52;4.18;;;1.58;;
73593;SDS011;64760;53.404;23.498;2023-12-22T02:38:24;5.00;;;2.10;;
73593;SDS011;64760;53.404;23.498;2023-12-22T02:40:51;5.18;;;1.58;;
73593;SDS011;64760;53.404;23.498;2023-12-22T02:43:17;5.07;;;1.80;;
73593;SDS011;64760;53.404;23.498;2023-12-22T02:45:43;3.47;;;1.85;;
73593;SDS011;64760;53.404;23.498;2023-12-22T02:48:10;4.03;;;1.85;;
73593;SDS011;64760;53.404;23.498;2023-12-22T02:50:36;5.97;;;2.45;;
73593;SDS011;64760;53.404;23.498;2023-12-22T02:53:03;9.63;;;4.40;;
73593;SDS011;64760;53.404;23.498;2023-12-22T02:55:29;2.10;;;1.35;;
73593;SDS011;64760;53.404;23.498;2023-12-22T02:57:55;4.70;;;2.00;;
73593;SDS011;64760;53.404;23.498;2023-12-22T03:00:21;7.10;;;1.70;;
73593;SDS011;64760;53.404;23.498;2023-12-22T03:02:48;12.05;;;1.48;;
73593;SDS011;64760;53.404;23.498;2023-12-22T03:05:16;4.90;;;1.45;;
73593;SDS011;64760;53.404;23.498;2023-12-22T03:07:43;5.35;;;2.15;;
73593;SDS011;64760;53.404;23.498;2023-12-22T03:10:09;2.45;;;1.50;;
73593;SDS011;64760;53.404;23.498;2023-12-22T03:12:36;6.25;;;2.20;;
73593;SDS011;64760;53.404;23.498;2023-12-22T03:15:03;3.90;;;1.65;;
73593;SDS011;64760;53.404;23.498;2023-12-22T03:17:31;2.58;;;1.13;;
73593;SDS011;64760;53.404;23.498;2023-12-22T03:19:57;5.25;;;1.70;;
73593;SDS011;64760;53.404;23.498;2023-12-22T03:22:23;2.88;;;1.13;;
73593;SDS011;64760;53.404;23.498;2023-12-22T03:24:49;3.35;;;1.10;;
73593;SDS011;64760;53.404;23.498;2023-12-22T03:27:16;1.77;;;0.73;;
73593;SDS011;64760;53.404;23.498;2023-12-22T03:29:43;4.63;;;1.75;;
73593;SDS011;64760;53.404;23.498;2023-12-22T03:32:10;4.38;;;1.05;;
73593;SDS011;64760;53.404;23.498;2023-12-22T03:34:36;3.50;;;1.40;;
73593;SDS011;64760;53.404;23.498;2023-12-22T03:37:03;6.90;;;1.83;;
73593;SDS011;64760;53.404;23.498;2023-12-22T03:39:30;6.45;;;1.73;;
73593;SDS011;64760;53.404;23.498;2023-12-22T03:41:56;2.15;;;1.15;;
73593;SDS011;64760;53.404;23.498;2023-12-22T03:44:22;4.07;;;1.48;;
73593;SDS011;64760;53.404;23.498;2023-12-22T03:46:48;6.10;;;1.80;;
73593;SDS011;64760;53.404;23.498;2023-12-22T03:49:14;6.28;;;1.70;;
73593;SDS011;64760;53.404;23.498;2023-12-22T03:51:42;8.93;;;1.95;;
73593;SDS011;64760;53.404;23.498;2023-12-22T03:54:08;3.50;;;1.23;;
73593;SDS011;64760;53.404;23.498;2023-12-22T03:56:34;4.20;;;1.95;;
73593;SDS011;64760;53.404;23.498;2023-12-22T03:59:00;2.97;;;1.17;;
73593;SDS011;64760;53.404;23.498;2023-12-22T04:01:27;3.88;;;1.05;;
73593;SDS011;64760;53.404;23.498;2023-12-22T04:03:53;4.22;;;1.50;;
73593;SDS011;64760;53.404;23.498;2023-12-22T04:06:19;3.20;;;1.30;;
73593;SDS011;64760;53.404;23.498;2023-12-22T04:08:45;9.32;;;2.28;;
73593;SDS011;64760;53.404;23.498;2023-12-22T04:11:12;2.85;;;0.95;;
73593;SDS011;64760;53.404;23.498;2023-12-22T04:13:38;1.23;;;0.68;;
73593;SDS011;64760;53.404;23.498;2023-12-22T04:16:04;12.35;;;1.98;;
73593;SDS011;64760;53.404;23.498;2023-12-22T04:18:31;7.50;;;2.15;;
73593;SDS011;64760;53.404;23.498;2023-12-22T04:20:58;1.63;;;1.10;;
73593;SDS011;64760;53.404;23.498;2023-12-22T04:23:24;6.07;;;1.88;;
73593;SDS011;64760;53.404;23.498;2023-12-22T04:25:50;3.03;;;1.33;;
73593;SDS011;64760;53.404;23.498;2023-12-22T04:28:16;4.68;;;1.40;;
73593;SDS011;64760;53.404;23.498;2023-12-22T04:30:43;1.70;;;0.88;;
73593;SDS011;64760;53.404;23.498;2023-12-22T04:33:09;3.08;;;1.42;;
73593;SDS011;64760;53.404;23.498;2023-12-22T04:35:35;5.82;;;2.35;;
73593;SDS011;64760;53.404;23.498;2023-12-22T04:38:01;2.08;;;1.05;;
73593;SDS011;64760;53.404;23.498;2023-12-22T04:40:28;3.92;;;1.70;;
73593;SDS011;64760;53.404;23.498;2023-12-22T04:42:54;6.00;;;2.08;;
73593;SDS011;64760;53.404;23.498;2023-12-22T04:45:21;10.93;;;4.13;;
73593;SDS011;64760;53.404;23.498;2023-12-22T04:47:47;6.07;;;2.45;;
73593;SDS011;64760;53.404;23.498;2023-12-22T04:50:13;9.02;;;3.10;;
73593;SDS011;64760;53.404;23.498;2023-12-22T04:52:39;7.22;;;2.92;;
73593;SDS011;64760;53.404;23.498;2023-12-22T04:55:06;8.05;;;3.72;;
73593;SDS011;64760;53.404;23.498;2023-12-22T04:57:32;19.85;;;6.78;;
73593;SDS011;64760;53.404;23.498;2023-12-22T04:59:58;9.52;;;2.88;;
73593;SDS011;64760;53.404;23.498;2023-12-22T05:02:24;5.53;;;2.33;;
73593;SDS011;64760;53.404;23.498;2023-12-22T05:04:51;5.82;;;2.83;;
73593;SDS011;64760;53.404;23.498;2023-12-22T05:07:17;3.95;;;2.00;;
73593;SDS011;64760;53.404;23.498;2023-12-22T05:09:43;11.80;;;4.05;;
73593;SDS011;64760;53.404;23.498;2023-12-22T05:12:09;39.38;;;12.95;;
73593;SDS011;64760;53.404;23.498;2023-12-22T05:14:36;6.57;;;2.38;;
73593;SDS011;64760;53.404;23.498;2023-12-22T05:17:02;12.07;;;3.33;;
73593;SDS011;64760;53.404;23.498;2023-12-22T05:19:29;8.65;;;3.58;;
73593;SDS011;64760;53.404;23.498;2023-12-22T05:21:55;15.00;;;3.55;;
73593;SDS011;64760;53.404;23.498;2023-12-22T05:24:22;6.65;;;3.10;;
73593;SDS011;64760;53.404;23.498;2023-12-22T05:26:48;7.82;;;2.95;;
73593;SDS011;64760;53.404;23.498;2023-12-22T05:29:15;7.88;;;2.88;;
73593;SDS011;64760;53.404;23.498;2023-12-22T05:31:41;7.90;;;2.88;;
73593;SDS011;64760;53.404;23.498;2023-12-22T05:34:07;8.82;;;2.72;;
73593;SDS011;64760;53.404;23.498;2023-12-22T05:36:35;11.43;;;1.95;;
73593;SDS011;64760;53.404;23.498;2023-12-22T05:39:02;11.00;;;3.85;;
73593;SDS011;64760;53.404;23.498;2023-12-22T05:41:28;2.92;;;1.70;;
73593;SDS011;64760;53.404;23.498;2023-12-22T05:43:54;7.72;;;2.65;;
73593;SDS011;64760;53.404;23.498;2023-12-22T05:46:20;9.55;;;2.63;;
73593;SDS011;64760;53.404;23.498;2023-12-22T05:48:47;5.35;;;2.28;;
73593;SDS011;64760;53.404;23.498;2023-12-22T05:51:13;9.88;;;4.07;;
73593;SDS011;64760;53.404;23.498;2023-12-22T05:53:40;11.88;;;5.35;;
73593;SDS011;64760;53.404;23.498;2023-12-22T05:56:21;26.42;;;10.18;;
73593;SDS011;64760;53.404;23.498;2023-12-22T05:58:49;13.38;;;5.05;;
73593;SDS011;64760;53.404;23.498;2023-12-22T06:01:18;17.33;;;5.28;;
73593;SDS011;64760;53.404;23.498;2023-12-22T06:03:45;8.10;;;3.75;;
73593;SDS011;64760;53.404;23.498;2023-12-22T06:06:12;4.35;;;2.25;;
73593;SDS011;64760;53.404;23.498;2023-12-22T06:08:39;4.70;;;2.47;;
73593;SDS011;64760;53.404;23.498;2023-12-22T06:11:05;6.38;;;2.33;;
73593;SDS011;64760;53.404;23.498;2023-12-22T06:13:31;6.35;;;1.80;;
73593;SDS011;64760;53.404;23.498;2023-12-22T06:15:58;7.70;;;1.83;;
73593;SDS011;64760;53.404;23.498;2023-12-22T06:18:24;5.80;;;3.03;;
73593;SDS011;64760;53.404;23.498;2023-12-22T06:20:50;4.88;;;1.73;;
73593;SDS011;64760;53.404;23.498;2023-12-22T06:23:16;7.97;;;2.65;;
73593;SDS011;64760;53.404;23.498;2023-12-22T06:25:43;5.05;;;2.20;;
73593;SDS011;64760;53.404;23.498;2023-12-22T06:28:09;8.38;;;2.67;;
73593;SDS011;64760;53.404;23.498;2023-12-22T06:30:35;8.73;;;2.15;;
73593;SDS011;64760;53.404;23.498;2023-12-22T06:33:02;4.18;;;1.13;;
73593;SDS011;64760;53.404;23.498;2023-12-22T06:35:29;6.93;;;2.30;;
73593;SDS011;64760;53.404;23.498;2023-12-22T06:37:55;7.28;;;2.75;;
73593;SDS011;64760;53.404;23.498;2023-12-22T06:40:21;7.03;;;3.28;;
73593;SDS011;64760;53.404;23.498;2023-12-22T06:42:48;7.25;;;2.88;;
73593;SDS011;64760;53.404;23.498;2023-12-22T06:45:15;8.68;;;4.47;;
73593;SDS011;64760;53.404;23.498;2023-12-22T06:47:41;5.28;;;2.17;;
73593;SDS011;64760;53.404;23.498;2023-12-22T06:50:07;8.15;;;3.85;;
73593;SDS011;64760;53.404;23.498;2023-12-22T06:52:34;7.95;;;2.80;;
73593;SDS011;64760;53.404;23.498;2023-12-22T06:55:00;9.25;;;3.22;;
73593;SDS011;64760;53.404;23.498;2023-12-22T06:57:26;7.55;;;3.22;;
73593;SDS011;64760;53.404;23.498;2023-12-22T06:59:52;6.97;;;2.63;;
73593;SDS011;64760;53.404;23.498;2023-12-22T07:02:19;11.05;;;2.70;;
73593;SDS011;64760;53.404;23.498;2023-12-22T07:07:48;6.28;;;3.42;;
73593;SDS011;64760;53.404;23.498;2023-12-22T07:10:14;10.82;;;2.70;;
73593;SDS011;64760;53.404;23.498;2023-12-22T07:12:40;9.70;;;3.85;;
73593;SDS011;64760;53.404;23.498;2023-12-22T07:15:07;7.57;;;3.22;;
73593;SDS011;64760;53.404;23.498;2023-12-22T07:17:34;10.25;;;3.78;;
73593;SDS011;64760;53.404;23.498;2023-12-22T07:20:00;8.82;;;3.75;;
73593;SDS011;64760;53.404;23.498;2023-12-22T07:22:29;9.05;;;4.90;;
73593;SDS011;64760;53.404;23.498;2023-12-22T07:24:55;19.98;;;8.25;;
73593;SDS011;64760;53.404;23.498;2023-12-22T07:27:21;8.77;;;3.95;;
73593;SDS011;64760;53.404;23.498;2023-12-22T07:29:47;13.38;;;5.78;;
73593;SDS011;64760;53.404;23.498;2023-12-22T07:32:14;9.68;;;4.22;;
73593;SDS011;64760;53.404;23.498;2023-12-22T07:34:40;12.52;;;5.55;;
73593;SDS011;64760;53.404;23.498;2023-12-22T07:37:07;4.95;;;3.22;;
73593;SDS011;64760;53.404;23.498;2023-12-22T07:39:33;12.52;;;6.13;;
73593;SDS011;64760;53.404;23.498;2023-12-22T07:42:00;11.13;;;5.35;;
73593;SDS011;64760;53.404;23.498;2023-12-22T07:44:26;9.95;;;4.10;;
73593;SDS011;64760;53.404;23.498;2023-12-22T07:46:56;10.93;;;4.88;;
73593;SDS011;64760;53.404;23.498;2023-12-22T07:49:24;15.25;;;5.18;;
73593;SDS011;64760;53.404;23.498;2023-12-22T07:51:51;10.52;;;4.38;;
73593;SDS011;64760;53.404;23.498;2023-12-22T07:54:18;12.45;;;6.03;;
73593;SDS011;64760;53.404;23.498;2023-12-22T07:56:45;8.38;;;3.80;;
73593;SDS011;64760;53.404;23.498;2023-12-22T07:59:11;9.65;;;4.45;;
73593;SDS011;64760;53.404;23.498;2023-12-22T08:01:37;14.68;;;5.30;;
73593;SDS011;64760;53.404;23.498;2023-12-22T08:04:04;10.65;;;4.63;;
73593;SDS011;64760;53.404;23.498;2023-12-22T08:06:30;13.88;;;4.60;;
73593;SDS011;64760;53.404;23.498;2023-12-22T08:08:56;11.18;;;4.38;;
73593;SDS011;64760;53.404;23.498;2023-12-22T08:11:24;5.82;;;3.03;;
73593;SDS011;64760;53.404;23.498;2023-12-22T08:13:51;7.35;;;2.70;;
73593;SDS011;64760;53.404;23.498;2023-12-22T08:16:17;8.20;;;3.42;;
73593;SDS011;64760;53.404;23.498;2023-12-22T08:18:43;5.72;;;2.63;;
73593;SDS011;64760;53.404;23.498;2023-12-22T08:21:10;5.75;;;2.30;;
73593;SDS011;64760;53.404;23.498;2023-12-22T08:23:36;7.88;;;4.05;;
73593;SDS011;64760;53.404;23.498;2023-12-22T08:26:02;13.30;;;4.68;;
73593;SDS011;64760;53.404;23.498;2023-12-22T08:28:28;7.28;;;2.05;;
73593;SDS011;64760;53.404;23.498;2023-12-22T08:30:55;7.40;;;2.92;;
73593;SDS011;64760;53.404;23.498;2023-12-22T08:33:21;6.75;;;3.17;;
73593;SDS011;64760;53.404;23.498;2023-12-22T08:35:47;11.63;;;4.00;;
73593;SDS011;64760;53.404;23.498;2023-12-22T08:38:13;11.45;;;4.45;;
73593;SDS011;64760;53.404;23.498;2023-12-22T08:40:41;3.35;;;1.48;;
73593;SDS011;64760;53.404;23.498;2023-12-22T08:43:07;4.18;;;1.83;;
73593;SDS011;64760;53.404;23.498;2023-12-22T08:45:33;10.77;;;4.00;;
73593;SDS011;64760;53.404;23.498;2023-12-22T08:47:59;12.63;;;5.68;;
73593;SDS011;64760;53.404;23.498;2023-12-22T08:50:26;6.38;;;2.72;;
73593;SDS011;64760;53.404;23.498;2023-12-22T08:52:52;11.40;;;4.72;;
73593;SDS011;64760;53.404;23.498;2023-12-22T08:55:19;8.02;;;2.92;;
73593;SDS011;64760;53.404;23.498;2023-12-22T08:57:45;8.20;;;3.58;;
73593;SDS011;64760;53.404;23.498;2023-12-22T09:00:11;7.00;;;2.60;;
73593;SDS011;64760;53.404;23.498;2023-12-22T09:02:38;5.82;;;1.98;;
73593;SDS011;64760;53.404;23.498;2023-12-22T09:05:05;5.97;;;1.92;;
73593;SDS011;64760;53.404;23.498;2023-12-22T09:07:33;5.07;;;2.80;;
73593;SDS011;64760;53.404;23.498;2023-12-22T09:09:59;2.78;;;1.70;;
73593;SDS011;64760;53.404;23.498;2023-12-22T09:12:25;8.82;;;2.65;;
73593;SDS011;64760;53.404;23.498;2023-12-22T09:14:51;8.85;;;4.47;;
73593;SDS011;64760;53.404;23.498;2023-12-22T09:17:18;26.63;;;10.52;;
73593;SDS011;64760;53.404;23.498;2023-12-22T09:19:44;27.65;;;11.63;;
73593;SDS011;64760;53.404;23.498;2023-12-22T09:22:10;23.63;;;9.35;;
73593;SDS011;64760;53.404;23.498;2023-12-22T09:24:36;33.08;;;13.30;;
73593;SDS011;64760;53.404;23.498;2023-12-22T09:27:03;76.13;;;28.33;;
73593;SDS011;64760;53.404;23.498;2023-12-22T09:29:30;63.85;;;23.58;;
73593;SDS011;64760;53.404;23.498;2023-12-22T09:32:00;57.13;;;24.17;;
73593;SDS011;64760;53.404;23.498;2023-12-22T09:34:26;17.17;;;7.07;;
73593;SDS011;64760;53.404;23.498;2023-12-22T09:36:54;22.27;;;12.82;;
73593;SDS011;64760;53.404;23.498;2023-12-22T09:39:20;12.57;;;4.57;;
73593;SDS011;64760;53.404;23.498;2023-12-22T09:41:50;10.25;;;4.47;;
73593;SDS011;64760;53.404;23.498;2023-12-22T09:44:18;16.58;;;7.47;;
73593;SDS011;64760;53.404;23.498;2023-12-22T09:46:47;10.77;;;4.75;;
73593;SDS011;64760;53.404;23.498;2023-12-22T09:49:16;9.75;;;3.72;;
73593;SDS011;64760;53.404;23.498;2023-12-22T09:51:44;9.43;;;5.15;;
73593;SDS011;64760;53.404;23.498;2023-12-22T09:54:11;14.82;;;4.78;;
73593;SDS011;64760;53.404;23.498;2023-12-22T09:56:38;9.55;;;3.58;;
73593;SDS011;64760;53.404;23.498;2023-12-22T09:59:11;9.63;;;3.05;;
73593;SDS011;64760;53.404;23.498;2023-12-22T10:01:40;8.55;;;4.35;;
73593;SDS011;64760;53.404;23.498;2023-12-22T10:04:12;12.10;;;5.60;;
73593;SDS011;64760;53.404;23.498;2023-12-22T10:06:40;9.38;;;4.30;;
73593;SDS011;64760;53.404;23.498;2023-12-22T10:09:08;10.13;;;2.80;;
73593;SDS011;64760;53.404;23.498;2023-12-22T10:11:38;13.55;;;5.55;;
73593;SDS011;64760;53.404;23.498;2023-12-22T10:14:08;9.48;;;2.88;;
73593;SDS011;64760;53.404;23.498;2023-12-22T10:16:36;16.17;;;4.40;;
73593;SDS011;64760;53.404;23.498;2023-12-22T10:19:03;11.32;;;3.75;;
73593;SDS011;64760;53.404;23.498;2023-12-22T10:21:31;9.88;;;3.53;;
73593;SDS011;64760;53.404;23.498;2023-12-22T10:23:58;7.50;;;2.80;;
73593;SDS011;64760;53.404;23.498;2023-12-22T10:26:25;8.05;;;2.53;;
73593;SDS011;64760;53.404;23.498;2023-12-22T10:28:51;7.13;;;2.50;;
73593;SDS011;64760;53.404;23.498;2023-12-22T10:31:18;8.40;;;2.75;;
73593;SDS011;64760;53.404;23.498;2023-12-22T10:33:44;11.32;;;3.05;;
73593;SDS011;64760;53.404;23.498;2023-12-22T10:36:10;8.45;;;3.40;;
73593;SDS011;64760;53.404;23.498;2023-12-22T10:38:37;8.45;;;3.58;;
73593;SDS011;64760;53.404;23.498;2023-12-22T10:41:04;7.57;;;2.60;;
73593;SDS011;64760;53.404;23.498;2023-12-22T10:43:36;12.43;;;3.67;;
73593;SDS011;64760;53.404;23.498;2023-12-22T10:46:07;7.13;;;2.50;;
73593;SDS011;64760;53.404;23.498;2023-12-22T10:48:33;9.25;;;2.63;;
73593;SDS011;64760;53.404;23.498;2023-12-22T10:51:01;12.10;;;6.03;;
73593;SDS011;64760;53.404;23.498;2023-12-22T10:53:27;7.30;;;2.72;;
73593;SDS011;64760;53.404;23.498;2023-12-22T10:55:54;7.95;;;2.63;;
73593;SDS011;64760;53.404;23.498;2023-12-22T10:58:20;6.38;;;3.00;;
73593;SDS011;64760;53.404;23.498;2023-12-22T11:00:47;7.57;;;3.17;;
73593;SDS011;64760;53.404;23.498;2023-12-22T11:05:46;14.10;;;4.03;;
73593;SDS011;64760;53.404;23.498;2023-12-22T11:08:14;11.02;;;3.42;;
73593;SDS011;64760;53.404;23.498;2023-12-22T11:13:09;7.15;;;2.50;;
73593;SDS011;64760;53.404;23.498;2023-12-22T11:15:39;10.07;;;2.92;;
73593;SDS011;64760;53.404;23.498;2023-12-22T11:18:07;7.72;;;2.17;;
73593;SDS011;64760;53.404;23.498;2023-12-22T11:23:01;8.43;;;4.32;;
73593;SDS011;64760;53.404;23.498;2023-12-22T11:25:28;5.78;;;1.83;;
73593;SDS011;64760;53.404;23.498;2023-12-22T11:27:56;8.63;;;2.92;;
73593;SDS011;64760;53.404;23.498;2023-12-22T11:30:25;4.40;;;1.60;;
73593;SDS011;64760;53.404;23.498;2023-12-22T11:32:53;5.85;;;2.00;;
73593;SDS011;64760;53.404;23.498;2023-12-22T11:35:20;9.93;;;3.22;;
73593;SDS011;64760;53.404;23.498;2023-12-22T11:37:49;5.40;;;1.75;;
73593;SDS011;64760;53.404;23.498;2023-12-22T11:40:15;8.63;;;4.70;;
73593;SDS011;64760;53.404;23.498;2023-12-22T11:42:43;11.57;;;4.93;;
73593;SDS011;64760;53.404;23.498;2023-12-22T11:45:14;7.68;;;3.75;;
73593;SDS011;64760;53.404;23.498;2023-12-22T11:47:42;5.00;;;2.38;;
73593;SDS011;64760;53.404;23.498;2023-12-22T11:50:09;6.57;;;2.60;;
73593;SDS011;64760;53.404;23.498;2023-12-22T11:52:36;6.53;;;2.22;;
73593;SDS011;64760;53.404;23.498;2023-12-22T11:55:03;7.25;;;2.08;;
73593;SDS011;64760;53.404;23.498;2023-12-22T11:57:36;6.18;;;2.65;;
73593;SDS011;64760;53.404;23.498;2023-12-22T12:00:07;7.20;;;3.10;;
73593;SDS011;64760;53.404;23.498;2023-12-22T12:02:40;6.13;;;2.55;;
73593;SDS011;64760;53.404;23.498;2023-12-22T12:05:08;8.00;;;2.85;;
73593;SDS011;64760;53.404;23.498;2023-12-22T12:07:44;7.03;;;3.28;;
73593;SDS011;64760;53.404;23.498;2023-12-22T12:10:36;7.43;;;2.75;;
73593;SDS011;64760;53.404;23.498;2023-12-22T12:13:06;6.78;;;2.10;;
73593;SDS011;64760;53.404;23.498;2023-12-22T12:15:36;2.83;;;1.52;;
73593;SDS011;64760;53.404;23.498;2023-12-22T12:18:06;7.57;;;2.25;;
73593;SDS011;64760;53.404;23.498;2023-12-22T12:20:34;6.00;;;1.77;;
73593;SDS011;64760;53.404;23.498;2023-12-22T12:23:01;3.28;;;1.60;;
73593;SDS011;64760;53.404;23.498;2023-12-22T12:25:28;9.63;;;3.22;;
73593;SDS011;64760;53.404;23.498;2023-12-22T12:28:05;9.20;;;3.03;;
73593;SDS011;64760;53.404;23.498;2023-12-22T12:30:33;3.90;;;1.45;;
73593;SDS011;64760;53.404;23.498;2023-12-22T12:33:08;3.28;;;1.40;;
73593;SDS011;64760;53.404;23.498;2023-12-22T12:35:37;5.95;;;2.13;;
73593;SDS011;64760;53.404;23.498;2023-12-22T12:40:31;10.27;;;3.05;;
73593;SDS011;64760;53.404;23.498;2023-12-22T12:43:06;3.53;;;1.45;;
73593;SDS011;64760;53.404;23.498;2023-12-22T12:45:35;9.45;;;2.38;;
73593;SDS011;64760;53.404;23.498;2023-12-22T12:48:06;5.18;;;2.63;;
73593;SDS011;64760;53.404;23.498;2023-12-22T12:50:33;4.97;;;1.92;;
73593;SDS011;64760;53.404;23.498;2023-12-22T12:52:59;11.82;;;2.72;;
73593;SDS011;64760;53.404;23.498;2023-12-22T12:55:26;11.02;;;2.22;;
73593;SDS011;64760;53.404;23.498;2023-12-22T12:57:53;6.75;;;2.40;;
73593;SDS011;64760;53.404;23.498;2023-12-22T13:05:22;4.40;;;1.85;;
73593;SDS011;64760;53.404;23.498;2023-12-22T13:07:49;6.63;;;2.92;;
73593;SDS011;64760;53.404;23.498;2023-12-22T13:10:34;9.50;;;4.70;;
73593;SDS011;64760;53.404;23.498;2023-12-22T13:13:01;6.50;;;3.28;;
73593;SDS011;64760;53.404;23.498;2023-12-22T13:15:31;8.82;;;3.05;;
73593;SDS011;64760;53.404;23.498;2023-12-22T13:17:58;7.90;;;2.17;;
73593;SDS011;64760;53.404;23.498;2023-12-22T13:20:24;8.73;;;3.08;;
73593;SDS011;64760;53.404;23.498;2023-12-22T13:22:51;5.50;;;2.83;;
73593;SDS011;64760;53.404;23.498;2023-12-22T13:25:19;6.30;;;2.13;;
73593;SDS011;64760;53.404;23.498;2023-12-22T13:27:47;7.97;;;2.58;;
73593;SDS011;64760;53.404;23.498;2023-12-22T13:30:15;5.03;;;1.70;;
73593;SDS011;64760;53.404;23.498;2023-12-22T13:32:57;4.85;;;1.58;;
73593;SDS011;64760;53.404;23.498;2023-12-22T13:35:24;4.30;;;1.98;;
73593;SDS011;64760;53.404;23.498;2023-12-22T13:37:51;4.65;;;2.33;;
73593;SDS011;64760;53.404;23.498;2023-12-22T13:40:18;11.98;;;3.90;;
73593;SDS011;64760;53.404;23.498;2023-12-22T13:42:52;12.02;;;3.53;;
73593;SDS011;64760;53.404;23.498;2023-12-22T13:45:20;5.78;;;2.28;;
73593;SDS011;64760;53.404;23.498;2023-12-22T13:47:47;6.95;;;2.03;;
73593;SDS011;64760;53.404;23.498;2023-12-22T13:50:14;6.88;;;2.65;;
73593;SDS011;64760;53.404;23.498;2023-12-22T13:52:41;7.30;;;3.15;;
73593;SDS011;64760;53.404;23.498;2023-12-22T13:55:11;6.22;;;2.83;;
73593;SDS011;64760;53.404;23.498;2023-12-22T13:57:39;3.75;;;2.00;;
73593;SDS011;64760;53.404;23.498;2023-12-22T14:00:27;3.28;;;1.90;;
73593;SDS011;64760;53.404;23.498;2023-12-22T14:02:58;8.00;;;3.10;;
73593;SDS011;64760;53.404;23.498;2023-12-22T14:05:24;5.43;;;1.63;;
73593;SDS011;64760;53.404;23.498;2023-12-22T14:07:51;7.40;;;3.55;;
73593;SDS011;64760;53.404;23.498;2023-12-22T14:10:18;6.95;;;3.35;;
73593;SDS011;64760;53.404;23.498;2023-12-22T14:12:45;8.60;;;3.70;;
73593;SDS011;64760;53.404;23.498;2023-12-22T14:15:11;6.13;;;1.85;;
73593;SDS011;64760;53.404;23.498;2023-12-22T14:17:38;4.53;;;2.13;;
73593;SDS011;64760;53.404;23.498;2023-12-22T14:20:07;6.95;;;1.95;;
73593;SDS011;64760;53.404;23.498;2023-12-22T14:22:37;6.22;;;2.95;;
73593;SDS011;64760;53.404;23.498;2023-12-22T14:25:05;8.50;;;3.13;;
73593;SDS011;64760;53.404;23.498;2023-12-22T14:32:25;4.90;;;1.67;;
73593;SDS011;64760;53.404;23.498;2023-12-22T14:34:52;5.13;;;2.58;;
73593;SDS011;64760;53.404;23.498;2023-12-22T14:37:19;4.47;;;2.42;;
73593;SDS011;64760;53.404;23.498;2023-12-22T14:39:46;9.35;;;4.00;;
73593;SDS011;64760;53.404;23.498;2023-12-22T14:42:13;6.13;;;3.03;;
73593;SDS011;64760;53.404;23.498;2023-12-22T14:44:40;6.45;;;2.22;;
73593;SDS011;64760;53.404;23.498;2023-12-22T14:47:06;11.40;;;4.15;;
73593;SDS011;64760;53.404;23.498;2023-12-22T14:49:32;5.40;;;2.70;;
73593;SDS011;64760;53.404;23.498;2023-12-22T14:51:59;5.25;;;2.55;;
73593;SDS011;64760;53.404;23.498;2023-12-22T14:54:26;3.55;;;2.08;;
73593;SDS011;64760;53.404;23.498;2023-12-22T14:56:52;6.35;;;2.28;;